Marvin, South Dakota
Current Conditions -  °F | °C
As of 7:53 AM on Wednesday 26 Nov 2014 (Local Time) from KVVV Reporting Station
Light Snow Light Snow  
Wind Chill: -5°   Ceiling: 800
Heat Index: 12°   Visibility: 2.5mi
Dew Point:   Wind: 18mph
Humidity: 85%   Direction: 340°NNW
Pressure: 30.2"   Gusts: 28mph
Location:  45.26°N, 96.91°W
Report Text: KVVV 261353Z AUTO 34016G24KT 2 1/2SM -SN OVC008 M11/M13 A3020 RMK AO2 VIS 1 1/4V4
Loading
Personal Weather Stations






























Interactive Weather Map New forecast layout! Learn more

10-Day Weather Forecast

Advertisements
Track Severe Weather on mobile